Airfield :
LOGIN :

Register | Disclaimer

   EN    FR    IT 

 










Legend :    VFR   Marginal VFR   IFR   Intensive IFR   Very Intensive IFR
Visi :
Ceiling :
>= 8 km
>= 3000ft
5 to 8 km
1000 to 3000 ft
1500m to 5 km
500 to 1000 ft
800 to 1500m
200 to 500 ft
< 800m
< 200 ft
Symbols :   Thunderstorms  Fog  Heavy snow  Heavy precipitations  Wind > 20 kt
SIGMETs :     Misc.  Thunderstorms  Icing  Turbulence  Mountain Waves  Volcanic Ashes






- Airport Elevation : 218 ft


EGYD - RAF Cranwell

CURRENT METAR :
  • 211620Z 35006KT 9999 FEW014 BKN030 BKN140 16/13 Q1009 TEMPO SCT014 RMK BLU TEMPO GRN

EXPIRED METARs :
  • 211550Z 35006KT 9999 FEW014 BKN030 17/13 Q1009 TEMPO BKN014 RMK BLU TEMPO GRN
  • 211520Z 01007KT 9999 SCT015 BKN025 16/13 Q1009 TEMPO BKN014 RMK WHT TEMPO GRN
  • 211450Z 01007KT 9999 BKN015 16/12 Q1009 TEMPO BKN015 RMK WHT TEMPO GRN
  • 211420Z 01006KT 9999 BKN017 16/12 Q1009 NOSIG RMK WHT WHT
  • 211350Z 01009KT 9999 SCT018 BKN200 17/12 Q1009 NOSIG RMK WHT WHT
  • 211320Z 02009KT 9999 FEW019 BKN023 16/12 Q1010 TEMPO FEW023 RMK WHT TEMPO BLU
  • 211250Z 02009KT 9999 SCT019 SCT028 BKN035 16/12 Q1010 TEMPO FEW019 RMK WHT TEMPO BLU
  • 211220Z 04010KT 9999 SCT020 BKN040 16/12 Q1010 TEMPO FEW020 BKN040 RMK WHT TEMPO BLU
  • 211150Z 36008KT 9999 SCT018 BKN040 16/12 Q1010 TEMPO FEW018 BKN040 RMK WHT TEMPO BLU

TAF TAF EGYD
Valid from the 21 at 15:00 until the 21 at 18:00 UTC


211338Z 2115/2118 05008KT 9999 FEW024 SCT030
TEMPO 2115/2118 6000 SHRA SCT024
PROB30
TEMPO 2115/2118 4000 +SHRA SCT010 BKN020CB



MET'MAP, your aeronautical weather chart ! - Copyright ORBIFLY December 2007 - Disclaimer

ORBIFLY MET'MAP TEAM :

Programming & Development : Alexandra Zaïnal
Original concept : Baudouin d'Aumeries
Technical & hardware support : Manuel Goepfert
Assistance : Marc-Olivier Méhu




SOURCES & CREDITS :

   NOAA